Time;durP1;ratioP1;P1;durP2;ratioP2;P2;SDS_P1;SDS_P2;PMS_P1;PMS_P2;Temp;Humidity;BMP_temperature;BMP_pressure;BME280_temperature;BME280_humidity;BME280_pressure;Samples;Min_cycle;Max_cycle;Signal;HPM_P1;HPM_P2
2023/04/28 00:00:06;;;;;;;5.27;4.23;;;;;;;;;;5031380;28;20238;-81
2023/04/28 00:02:34;;;;;;;6.83;4.90;;;;;;;;;;5031896;28;20288;-81
2023/04/28 00:05:02;;;;;;;4.53;4.13;;;;;;;;;;5031618;28;20249;-81
2023/04/28 00:07:29;;;;;;;6.30;4.17;;;;;;;;;;5031400;28;20586;-81
2023/04/28 00:09:56;;;;;;;6.37;4.90;;;;;;;;;;5034670;28;20246;-81
2023/04/28 00:12:23;;;;;;;5.27;4.20;;;;;;;;;;5056088;28;20234;-81
2023/04/28 00:14:50;;;;;;;5.20;4.70;;;;;;;;;;5051146;28;20214;-81
2023/04/28 00:17:17;;;;;;;6.00;4.80;;;;;;;;;;5057981;28;20672;-81
2023/04/28 00:19:45;;;;;;;5.50;4.70;;;;;;;;;;5059494;28;20218;-81
2023/04/28 00:22:14;;;;;;;4.70;4.30;;;;;;;;;;5044696;28;20245;-81
2023/04/28 00:24:41;;;;;;;6.67;4.10;;;;;;;;;;5059790;28;20588;-81
2023/04/28 00:27:08;;;;;;;8.33;4.20;;;;;;;;;;5059448;28;20682;-81
2023/04/28 00:29:35;;;;;;;6.60;4.40;;;;;;;;;;5053841;28;20241;-81
2023/04/28 00:32:02;;;;;;;5.20;4.03;;;;;;;;;;5058661;28;20233;-81
2023/04/28 00:34:33;;;;;;;5.30;4.30;;;;;;;;;;5054061;28;20210;-81
2023/04/28 00:37:00;;;;;;;4.50;3.80;;;;;;;;;;5055182;28;20233;-81
2023/04/28 00:39:28;;;;;;;6.40;4.13;;;;;;;;;;5059587;28;20221;-81
2023/04/28 00:41:55;;;;;;;5.40;4.40;;;;;;;;;;5040137;28;20242;-81
2023/04/28 00:44:22;;;;;;;6.37;4.17;;;;;;;;;;5030187;28;20554;-81
2023/04/28 00:46:49;;;;;;;6.20;4.30;;;;;;;;;;5030377;28;20234;-81
2023/04/28 00:49:16;;;;;;;7.80;5.37;;;;;;;;;;5031274;28;20227;-81
2023/04/28 00:51:44;;;;;;;5.87;4.80;;;;;;;;;;5022340;28;20763;-81
2023/04/28 00:54:13;;;;;;;4.87;4.30;;;;;;;;;;5031102;28;20213;-81
2023/04/28 00:56:43;;;;;;;5.50;4.90;;;;;;;;;;5030655;28;20704;-81
2023/04/28 00:59:11;;;;;;;6.13;4.80;;;;;;;;;;5030946;28;20241;-81
2023/04/28 01:01:38;;;;;;;5.30;4.80;;;;;;;;;;5027556;28;20254;-82
2023/04/28 01:04:05;;;;;;;5.27;4.73;;;;;;;;;;5029796;28;20210;-81
2023/04/28 01:06:32;;;;;;;7.93;4.83;;;;;;;;;;5054323;28;20234;-81
2023/04/28 01:08:59;;;;;;;8.10;4.87;;;;;;;;;;5052167;28;20222;-81
2023/04/28 01:11:26;;;;;;;6.13;4.57;;;;;;;;;;5059478;28;20234;-80
2023/04/28 01:13:56;;;;;;;5.90;4.60;;;;;;;;;;5059743;28;20217;-81
2023/04/28 01:16:25;;;;;;;5.53;5.03;;;;;;;;;;5051832;28;20321;-81
2023/04/28 01:18:52;;;;;;;5.67;4.60;;;;;;;;;;5059163;28;20260;-81
2023/04/28 01:21:27;;;;;;;9.03;5.03;;;;;;;;;;5058154;28;20234;-81
2023/04/28 01:23:56;;;;;;;6.57;4.27;;;;;;;;;;5062673;28;20284;-81
2023/04/28 01:26:23;;;;;;;5.20;4.70;;;;;;;;;;5070157;28;20237;-81
2023/04/28 01:28:50;;;;;;;5.43;4.57;;;;;;;;;;5054632;28;20225;-81
2023/04/28 01:31:17;;;;;;;5.17;4.67;;;;;;;;;;5054547;28;20229;-81
2023/04/28 01:33:44;;;;;;;11.50;4.60;;;;;;;;;;5063194;28;20722;-81
2023/04/28 01:36:11;;;;;;;5.13;4.50;;;;;;;;;;5053986;28;20244;-81
2023/04/28 01:38:38;;;;;;;4.43;4.03;;;;;;;;;;5062632;28;20272;-82
2023/04/28 01:41:06;;;;;;;4.47;4.07;;;;;;;;;;5062107;28;20233;-81
2023/04/28 01:43:33;;;;;;;5.90;4.47;;;;;;;;;;5060759;28;20206;-81
2023/04/28 01:46:00;;;;;;;6.80;4.20;;;;;;;;;;5065518;28;20233;-81
2023/04/28 01:48:28;;;;;;;5.60;4.07;;;;;;;;;;5069588;28;20217;-81
2023/04/28 01:50:55;;;;;;;5.73;4.67;;;;;;;;;;5061823;28;20240;-81
2023/04/28 01:53:22;;;;;;;6.40;4.30;;;;;;;;;;5062747;28;20214;-81
2023/04/28 01:55:49;;;;;;;4.90;4.40;;;;;;;;;;5053834;28;20238;-81
2023/04/28 01:58:17;;;;;;;4.47;4.07;;;;;;;;;;5056599;28;20217;-81
2023/04/28 02:00:44;;;;;;;5.80;4.57;;;;;;;;;;5062129;28;20229;-81
2023/04/28 02:03:11;;;;;;;5.97;4.80;;;;;;;;;;5055855;28;20210;-81
2023/04/28 02:05:38;;;;;;;5.20;4.60;;;;;;;;;;5061922;28;20235;-81
2023/04/28 02:08:05;;;;;;;4.67;4.17;;;;;;;;;;5062211;28;20214;-81
2023/04/28 02:10:32;;;;;;;7.20;4.63;;;;;;;;;;5053226;28;20230;-81
2023/04/28 02:12:59;;;;;;;6.30;4.90;;;;;;;;;;5054326;28;20234;-81
2023/04/28 02:15:28;;;;;;;5.07;4.57;;;;;;;;;;5058194;28;20233;-81
2023/04/28 02:17:55;;;;;;;5.90;5.30;;;;;;;;;;5057136;28;20210;-80
2023/04/28 02:20:22;;;;;;;7.43;3.97;;;;;;;;;;5064912;28;20232;-80
2023/04/28 02:22:49;;;;;;;5.80;5.10;;;;;;;;;;5058430;28;20734;-80
2023/04/28 02:25:16;;;;;;;5.47;4.97;;;;;;;;;;5055901;28;20237;-80
2023/04/28 02:27:44;;;;;;;7.40;5.17;;;;;;;;;;5066761;28;20218;-80
2023/04/28 02:30:11;;;;;;;6.43;5.00;;;;;;;;;;5052433;28;20244;-81
2023/04/28 02:32:39;;;;;;;7.33;5.27;;;;;;;;;;5059753;28;20628;-81
2023/04/28 02:35:07;;;;;;;9.40;5.80;;;;;;;;;;5054945;28;20696;-80
2023/04/28 02:37:34;;;;;;;7.60;4.80;;;;;;;;;;5053529;28;20688;-81
2023/04/28 02:40:01;;;;;;;5.23;4.73;;;;;;;;;;5052563;28;20313;-80
2023/04/28 02:42:28;;;;;;;6.93;5.07;;;;;;;;;;5066290;28;20620;-81
2023/04/28 02:44:55;;;;;;;5.73;4.80;;;;;;;;;;5055360;28;20248;-80
2023/04/28 02:47:22;;;;;;;7.97;5.10;;;;;;;;;;5061087;28;20210;-80
2023/04/28 02:49:51;;;;;;;6.87;5.23;;;;;;;;;;5054415;28;20766;-81
2023/04/28 02:52:18;;;;;;;7.43;5.30;;;;;;;;;;5053068;28;20237;-80
2023/04/28 02:54:47;;;;;;;6.27;4.50;;;;;;;;;;5052758;28;20216;-81
2023/04/28 02:57:15;;;;;;;6.40;5.30;;;;;;;;;;5052182;28;20208;-80
2023/04/28 02:59:42;;;;;;;7.53;5.20;;;;;;;;;;5060298;28;20206;-81
2023/04/28 03:02:09;;;;;;;7.57;5.33;;;;;;;;;;5058530;28;20226;-81
2023/04/28 03:04:36;;;;;;;6.00;5.13;;;;;;;;;;5053240;28;20206;-81
2023/04/28 03:07:04;;;;;;;4.77;4.13;;;;;;;;;;5060779;28;20234;-81
2023/04/28 03:09:31;;;;;;;5.60;5.10;;;;;;;;;;5061331;28;20217;-81
2023/04/28 03:11:58;;;;;;;6.67;5.20;;;;;;;;;;5052488;28;20241;-81
2023/04/28 03:14:25;;;;;;;6.03;5.13;;;;;;;;;;5062737;28;20209;-81
2023/04/28 03:16:52;;;;;;;7.70;4.87;;;;;;;;;;5052116;28;20226;-81
2023/04/28 03:19:19;;;;;;;7.10;5.17;;;;;;;;;;5065646;28;20301;-81
2023/04/28 03:21:47;;;;;;;6.63;5.07;;;;;;;;;;5063800;28;20244;-81
2023/04/28 03:24:15;;;;;;;7.20;5.37;;;;;;;;;;5061734;28;20238;-81
2023/04/28 03:26:42;;;;;;;6.57;5.90;;;;;;;;;;5060454;28;20241;-81
2023/04/28 03:29:09;;;;;;;6.43;5.67;;;;;;;;;;5060584;28;20219;-81
2023/04/28 03:31:36;;;;;;;8.43;5.57;;;;;;;;;;5051442;28;20229;-81
2023/04/28 03:34:03;;;;;;;7.77;5.97;;;;;;;;;;5053135;28;20207;-81
2023/04/28 03:36:30;;;;;;;6.97;5.57;;;;;;;;;;5059258;28;20226;-81
2023/04/28 03:38:57;;;;;;;9.97;5.77;;;;;;;;;;5052021;28;20296;-81
2023/04/28 03:41:26;;;;;;;6.20;5.33;;;;;;;;;;5051354;28;20236;-80
2023/04/28 03:43:55;;;;;;;6.53;5.47;;;;;;;;;;5051737;28;20206;-81
2023/04/28 03:46:22;;;;;;;6.10;5.50;;;;;;;;;;5060030;28;20230;-82
2023/04/28 03:48:49;;;;;;;8.70;5.67;;;;;;;;;;5060668;28;20264;-82
2023/04/28 03:51:16;;;;;;;7.33;5.70;;;;;;;;;;5070369;28;20233;-82
2023/04/28 03:53:43;;;;;;;11.60;5.87;;;;;;;;;;5057372;28;20683;-82
2023/04/28 03:56:11;;;;;;;9.60;5.87;;;;;;;;;;5051697;28;20260;-82
2023/04/28 03:58:40;;;;;;;7.37;5.80;;;;;;;;;;5052435;28;20217;-82
2023/04/28 04:01:07;;;;;;;7.13;5.70;;;;;;;;;;5060677;28;20234;-82
2023/04/28 04:03:34;;;;;;;7.63;5.80;;;;;;;;;;5063942;28;20213;-82
2023/04/28 04:06:01;;;;;;;6.80;6.10;;;;;;;;;;5071097;28;20711;-82
2023/04/28 04:08:28;;;;;;;6.90;6.20;;;;;;;;;;5051500;28;20209;-82
2023/04/28 04:10:55;;;;;;;8.20;6.53;;;;;;;;;;5051544;28;20250;-83
2023/04/28 04:13:22;;;;;;;9.47;6.47;;;;;;;;;;5063561;28;20678;-82
2023/04/28 04:15:51;;;;;;;7.20;6.13;;;;;;;;;;5056768;28;20229;-82
2023/04/28 04:18:18;;;;;;;8.23;6.00;;;;;;;;;;5068350;28;20670;-83
2023/04/28 04:20:45;;;;;;;8.43;6.30;;;;;;;;;;5059050;28;20245;-83
2023/04/28 04:23:12;;;;;;;9.30;6.73;;;;;;;;;;5059587;28;20202;-83
2023/04/28 04:25:40;;;;;;;9.33;6.87;;;;;;;;;;5065059;28;20225;-83
2023/04/28 04:28:07;;;;;;;7.07;6.27;;;;;;;;;;5057764;28;20705;-83
2023/04/28 04:30:34;;;;;;;11.63;6.23;;;;;;;;;;5059875;28;20234;-83
2023/04/28 04:33:02;;;;;;;8.83;6.87;;;;;;;;;;5051619;28;20234;-83
2023/04/28 04:35:29;;;;;;;8.73;6.50;;;;;;;;;;5054753;28;20232;-83
2023/04/28 04:37:56;;;;;;;8.23;6.03;;;;;;;;;;5071688;28;20209;-83
2023/04/28 04:40:23;;;;;;;10.80;7.07;;;;;;;;;;5067658;28;20233;-83
2023/04/28 04:42:50;;;;;;;7.87;5.93;;;;;;;;;;5051211;28;20229;-83
2023/04/28 04:45:17;;;;;;;7.77;6.40;;;;;;;;;;5053120;28;20229;-83
2023/04/28 04:47:44;;;;;;;8.33;6.87;;;;;;;;;;5065199;28;20206;-83
2023/04/28 04:50:13;;;;;;;6.70;6.00;;;;;;;;;;5056953;28;20236;-83
2023/04/28 04:52:40;;;;;;;9.93;6.80;;;;;;;;;;5059624;28;20234;-83
2023/04/28 04:55:09;;;;;;;8.57;6.93;;;;;;;;;;5055680;28;20234;-84
2023/04/28 04:57:37;;;;;;;7.93;6.47;;;;;;;;;;5050830;28;20206;-83
2023/04/28 05:00:04;;;;;;;8.80;6.83;;;;;;;;;;5067209;28;20714;-84
2023/04/28 05:02:31;;;;;;;9.57;7.07;;;;;;;;;;5063571;28;20222;-84
2023/04/28 05:04:58;;;;;;;7.33;6.63;;;;;;;;;;5054740;28;20209;-83
2023/04/28 05:07:27;;;;;;;11.10;7.00;;;;;;;;;;5058600;28;20229;-83
2023/04/28 05:09:54;;;;;;;8.83;7.13;;;;;;;;;;5049324;28;20210;-83
2023/04/28 05:12:21;;;;;;;8.37;7.00;;;;;;;;;;5050321;28;20234;-83
2023/04/28 05:14:48;;;;;;;11.97;8.00;;;;;;;;;;5050543;28;20206;-83
2023/04/28 05:17:15;;;;;;;10.93;7.50;;;;;;;;;;5050929;28;20585;-83
2023/04/28 05:19:42;;;;;;;11.50;6.87;;;;;;;;;;5050725;28;20213;-83
2023/04/28 05:22:10;;;;;;;8.27;7.43;;;;;;;;;;5059180;28;20228;-83
2023/04/28 05:24:38;;;;;;;8.70;7.63;;;;;;;;;;5051105;28;20264;-82
2023/04/28 05:27:05;;;;;;;9.13;7.43;;;;;;;;;;5058984;28;20236;-83
2023/04/28 05:29:32;;;;;;;8.03;7.23;;;;;;;;;;5043041;28;20212;-82
2023/04/28 05:31:59;;;;;;;10.97;7.10;;;;;;;;;;5050620;28;20236;-83
2023/04/28 05:34:26;;;;;;;15.47;8.07;;;;;;;;;;5058881;28;20213;-83
2023/04/28 05:36:53;;;;;;;7.90;7.10;;;;;;;;;;5058555;28;20225;-82
2023/04/28 05:39:21;;;;;;;11.43;7.53;;;;;;;;;;5052940;28;20691;-82
2023/04/28 05:41:49;;;;;;;10.60;7.27;;;;;;;;;;5055757;28;20229;-83
2023/04/28 05:44:16;;;;;;;12.23;8.13;;;;;;;;;;5059040;28;20206;-83
2023/04/28 05:46:43;;;;;;;9.77;8.20;;;;;;;;;;5050561;28;20226;-82
2023/04/28 05:49:10;;;;;;;13.43;8.20;;;;;;;;;;5050342;28;20210;-83
2023/04/28 05:51:37;;;;;;;12.57;8.60;;;;;;;;;;5049910;28;20233;-83
2023/04/28 05:54:04;;;;;;;12.87;9.40;;;;;;;;;;5050655;28;20225;-83
2023/04/28 05:56:32;;;;;;;12.37;8.60;;;;;;;;;;5050155;28;20271;-84
2023/04/28 05:59:02;;;;;;;10.40;7.77;;;;;;;;;;5050655;28;20210;-83
2023/04/28 06:01:30;;;;;;;9.60;8.07;;;;;;;;;;5058248;28;20250;-83
2023/04/28 06:03:57;;;;;;;11.93;8.23;;;;;;;;;;5058216;28;20219;-83
2023/04/28 06:06:25;;;;;;;10.27;7.30;;;;;;;;;;5058956;28;20261;-83
2023/04/28 06:08:52;;;;;;;11.10;7.40;;;;;;;;;;5051263;28;20206;-83
2023/04/28 06:11:21;;;;;;;9.87;7.63;;;;;;;;;;5053029;28;20230;-83
2023/04/28 06:13:48;;;;;;;7.83;7.03;;;;;;;;;;5061113;28;20206;-82
2023/04/28 06:16:16;;;;;;;11.47;7.33;;;;;;;;;;5054762;28;20222;-83
2023/04/28 06:18:43;;;;;;;11.67;7.37;;;;;;;;;;5055884;28;20228;-83
2023/04/28 06:21:10;;;;;;;8.67;7.77;;;;;;;;;;5054305;28;20229;-84
2023/04/28 06:23:39;;;;;;;13.47;8.17;;;;;;;;;;5056761;28;20209;-84
2023/04/28 06:26:06;;;;;;;10.20;8.30;;;;;;;;;;5065537;28;20252;-84
2023/04/28 06:28:33;;;;;;;8.60;7.70;;;;;;;;;;5057243;28;20210;-84
2023/04/28 06:31:00;;;;;;;11.47;7.87;;;;;;;;;;5053513;28;20313;-84
2023/04/28 06:33:29;;;;;;;8.07;7.10;;;;;;;;;;5061078;28;20218;-84
2023/04/28 06:35:56;;;;;;;14.73;8.57;;;;;;;;;;5061832;28;20244;-85
2023/04/28 06:38:23;;;;;;;9.63;7.53;;;;;;;;;;5059336;28;20237;-85
2023/04/28 06:40:50;;;;;;;11.13;8.37;;;;;;;;;;5069416;28;20609;-86
2023/04/28 06:43:17;;;;;;;12.63;8.77;;;;;;;;;;5056163;28;20259;-85
2023/04/28 06:45:44;;;;;;;9.57;8.27;;;;;;;;;;5059137;28;20221;-85
2023/04/28 06:48:11;;;;;;;11.47;9.40;;;;;;;;;;5073206;28;20254;-85
2023/04/28 06:50:40;;;;;;;11.03;8.73;;;;;;;;;;5065511;28;20233;-85
2023/04/28 06:53:07;;;;;;;12.20;8.97;;;;;;;;;;5066042;28;20754;-86
2023/04/28 06:55:34;;;;;;;13.63;8.47;;;;;;;;;;5048511;28;20229;-85
2023/04/28 06:58:01;;;;;;;13.30;8.93;;;;;;;;;;5066049;28;20202;-86
2023/04/28 07:00:28;;;;;;;11.93;8.80;;;;;;;;;;5063685;28;20722;-85
2023/04/28 07:02:55;;;;;;;11.00;8.47;;;;;;;;;;5053744;28;20225;-85
2023/04/28 07:05:22;;;;;;;10.63;9.23;;;;;;;;;;5059773;28;20237;-86
2023/04/28 07:07:51;;;;;;;10.00;8.90;;;;;;;;;;5052624;28;20620;-85
2023/04/28 07:10:19;;;;;;;10.93;8.37;;;;;;;;;;5043494;28;20229;-85
2023/04/28 07:12:47;;;;;;;10.67;9.33;;;;;;;;;;5060757;28;20229;-86
2023/04/28 07:15:14;;;;;;;9.83;8.80;;;;;;;;;;5052491;28;20282;-85
2023/04/28 07:17:41;;;;;;;11.17;8.77;;;;;;;;;;5072933;28;20228;-85
2023/04/28 07:20:08;;;;;;;11.10;9.43;;;;;;;;;;5063824;28;20236;-85
2023/04/28 07:22:37;;;;;;;13.80;9.30;;;;;;;;;;5048523;28;20229;-85
2023/04/28 07:25:06;;;;;;;13.07;8.40;;;;;;;;;;5064678;28;20238;-85
2023/04/28 07:27:33;;;;;;;10.53;8.60;;;;;;;;;;5064057;28;20845;-85
2023/04/28 07:30:00;;;;;;;13.37;9.03;;;;;;;;;;5072509;28;20241;-85
2023/04/28 07:32:27;;;;;;;13.87;8.87;;;;;;;;;;5061741;28;20229;-85
2023/04/28 07:34:54;;;;;;;9.40;7.97;;;;;;;;;;5061101;28;20256;-86
2023/04/28 07:37:24;;;;;;;10.10;8.70;;;;;;;;;;5069126;28;20209;-86
2023/04/28 07:39:51;;;;;;;11.80;8.33;;;;;;;;;;5061221;28;20206;-86
2023/04/28 07:42:20;;;;;;;10.10;8.90;;;;;;;;;;5052998;28;20222;-84
2023/04/28 07:44:47;;;;;;;11.13;9.40;;;;;;;;;;5060267;28;20205;-87
2023/04/28 07:47:14;;;;;;;10.93;8.93;;;;;;;;;;5061186;28;20610;-85
2023/04/28 07:49:41;;;;;;;18.37;9.77;;;;;;;;;;5060459;28;20214;-85
2023/04/28 07:52:08;;;;;;;12.07;9.90;;;;;;;;;;5060613;28;20707;-85
2023/04/28 07:54:35;;;;;;;11.97;9.33;;;;;;;;;;5052532;28;20289;-85
2023/04/28 07:57:04;;;;;;;12.13;9.30;;;;;;;;;;5052494;28;20226;-85
2023/04/28 07:59:33;;;;;;;13.07;9.57;;;;;;;;;;5052678;28;20210;-85
2023/04/28 08:02:00;;;;;;;13.93;9.27;;;;;;;;;;5051806;28;20226;-84
2023/04/28 08:04:27;;;;;;;11.13;8.87;;;;;;;;;;5052396;28;20214;-85
2023/04/28 08:06:54;;;;;;;12.53;10.00;;;;;;;;;;5051536;28;20230;-85
2023/04/28 08:09:21;;;;;;;11.47;9.50;;;;;;;;;;5060200;28;20219;-85
2023/04/28 08:11:48;;;;;;;16.43;9.23;;;;;;;;;;5056482;28;20232;-84
2023/04/28 08:14:15;;;;;;;13.93;9.73;;;;;;;;;;5063631;28;20893;-84
2023/04/28 08:16:45;;;;;;;9.13;8.17;;;;;;;;;;5055855;28;20236;-84
2023/04/28 08:19:12;;;;;;;10.80;8.97;;;;;;;;;;5055964;28;20805;-84
2023/04/28 08:21:39;;;;;;;10.97;9.37;;;;;;;;;;5051422;28;20225;-83
2023/04/28 08:24:07;;;;;;;11.40;8.87;;;;;;;;;;5067717;28;20689;-84
2023/04/28 08:26:34;;;;;;;13.67;9.40;;;;;;;;;;5062551;28;20908;-85
2023/04/28 08:29:01;;;;;;;11.30;9.07;;;;;;;;;;5056995;28;20214;-84
2023/04/28 08:31:28;;;;;;;11.73;9.20;;;;;;;;;;5060794;28;20234;-84
2023/04/28 08:33:57;;;;;;;15.20;8.67;;;;;;;;;;5065490;28;20238;-85
2023/04/28 08:36:27;;;;;;;9.97;8.27;;;;;;;;;;5056450;28;20237;-85
2023/04/28 08:38:56;;;;;;;13.97;7.73;;;;;;;;;;5060060;28;20210;-84
2023/04/28 08:41:25;;;;;;;15.33;9.63;;;;;;;;;;5068246;28;20577;-84
2023/04/28 08:43:52;;;;;;;13.13;8.73;;;;;;;;;;5063566;28;20213;-85
2023/04/28 08:46:21;;;;;;;9.73;8.73;;;;;;;;;;5052977;28;20221;-83
2023/04/28 08:48:50;;;;;;;12.73;10.23;;;;;;;;;;5052444;28;20210;-83
2023/04/28 08:51:27;;;;;;;11.10;9.50;;;;;;;;;;5051575;28;20234;-83
2023/04/28 08:53:55;;;;;;;16.43;9.60;;;;;;;;;;5052605;28;20581;-83
2023/04/28 08:56:22;;;;;;;12.77;8.77;;;;;;;;;;5059574;28;20237;-83
2023/04/28 08:58:50;;;;;;;11.60;8.33;;;;;;;;;;5058824;28;20206;-82
2023/04/28 09:01:17;;;;;;;11.30;9.17;;;;;;;;;;5051289;28;20232;-82
2023/04/28 09:03:46;;;;;;;10.07;8.90;;;;;;;;;;5071540;28;20236;-83
2023/04/28 09:06:13;;;;;;;10.60;8.93;;;;;;;;;;5063071;28;20703;-83
2023/04/28 09:08:41;;;;;;;9.93;8.93;;;;;;;;;;5059468;28;20199;-83
2023/04/28 09:11:09;;;;;;;11.73;9.40;;;;;;;;;;5051165;28;20951;-82
2023/04/28 09:13:37;;;;;;;14.37;10.27;;;;;;;;;;5073521;22;20234;-89
2023/04/28 09:16:04;;;;;;;10.43;9.33;;;;;;;;;;5055892;28;20228;-88
2023/04/28 09:18:32;;;;;;;15.57;9.77;;;;;;;;;;5056110;28;20210;-88
2023/04/28 09:21:09;;;;;;;15.70;10.63;;;;;;;;;;5056742;28;20604;-88
2023/04/28 09:23:46;;;;;;;11.10;9.80;;;;;;;;;;5056123;28;20249;-87
2023/04/28 09:26:15;;;;;;;13.40;11.03;;;;;;;;;;5057573;28;20725;-89
2023/04/28 09:28:42;;;;;;;19.57;11.03;;;;;;;;;;5048709;28;20217;-90
2023/04/28 09:31:26;;;;;;;11.37;9.73;;;;;;;;;;5056522;28;20233;-88
2023/04/28 09:34:00;;;;;;;10.83;9.73;;;;;;;;;;5056531;28;20234;-88
2023/04/28 09:36:29;;;;;;;11.53;10.30;;;;;;;;;;5055897;28;20237;-88
2023/04/28 09:38:58;;;;;;;15.50;9.77;;;;;;;;;;5056763;28;20267;-86
2023/04/28 09:41:38;;;;;;;12.67;9.57;;;;;;;;;;5054954;28;20230;-93
2023/04/28 09:44:15;;;;;;;11.13;10.00;;;;;;;;;;5058511;28;20575;-89
2023/04/28 09:46:43;;;;;;;10.67;9.60;;;;;;;;;;5059788;28;20645;-88
2023/04/28 09:49:17;;;;;;;10.20;9.20;;;;;;;;;;5060849;28;20210;-88
2023/04/28 09:51:44;;;;;;;12.13;8.80;;;;;;;;;;5051559;28;20237;-88
2023/04/28 09:54:13;;;;;;;12.07;9.43;;;;;;;;;;5060873;28;20237;-88
2023/04/28 09:56:41;;;;;;;12.70;9.17;;;;;;;;;;5059945;28;20230;-88
2023/04/28 09:59:08;;;;;;;11.73;9.13;;;;;;;;;;5060352;28;20203;-89
2023/04/28 10:01:38;;;;;;;11.27;9.80;;;;;;;;;;5059514;28;20229;-88
2023/04/28 10:04:10;;;;;;;10.83;9.37;;;;;;;;;;5060301;28;20210;-89
2023/04/28 10:06:38;;;;;;;11.07;9.63;;;;;;;;;;5059123;28;20239;-88
2023/04/28 10:09:06;;;;;;;12.07;10.07;;;;;;;;;;5060315;28;20202;-88
2023/04/28 10:11:33;;;;;;;13.10;10.83;;;;;;;;;;5058851;28;20254;-88
2023/04/28 10:14:02;;;;;;;11.77;10.57;;;;;;;;;;5061282;28;20233;-88
2023/04/28 10:16:30;;;;;;;11.60;10.40;;;;;;;;;;5059864;28;20237;-88
2023/04/28 10:18:58;;;;;;;13.53;10.93;;;;;;;;;;5059303;28;20210;-85
2023/04/28 10:21:26;;;;;;;13.30;11.00;;;;;;;;;;5058817;28;20226;-90
2023/04/28 10:24:01;;;;;;;12.07;10.27;;;;;;;;;;5059745;28;20233;-89
2023/04/28 10:26:36;;;;;;;12.07;10.63;;;;;;;;;;5058182;28;20248;-89
2023/04/28 10:29:05;;;;;;;11.13;10.03;;;;;;;;;;5059753;28;20202;-89
2023/04/28 10:31:33;;;;;;;13.30;10.70;;;;;;;;;;5058290;28;20230;-90
2023/04/28 10:34:21;;;;;;;12.37;11.17;;;;;;;;;;5059844;28;20261;-86
2023/04/28 10:36:51;;;;;;;13.20;10.77;;;;;;;;;;5052306;28;20234;-89
2023/04/28 10:39:18;;;;;;;11.40;10.30;;;;;;;;;;5060286;28;20611;-89
2023/04/28 10:41:46;;;;;;;11.67;10.47;;;;;;;;;;5059347;28;20272;-89
2023/04/28 10:44:32;;;;;;;11.30;10.20;;;;;;;;;;5059345;28;20256;-89
2023/04/28 10:47:02;;;;;;;12.97;10.20;;;;;;;;;;5058904;28;20226;-89
2023/04/28 10:49:44;;;;;;;12.50;11.20;;;;;;;;;;5059094;28;20211;-89
2023/04/28 10:52:26;;;;;;;15.87;11.73;;;;;;;;;;5058206;28;20706;-89
2023/04/28 10:55:08;;;;;;;13.90;11.70;;;;;;;;;;5050598;28;20237;-89
2023/04/28 10:57:37;;;;;;;13.03;11.63;;;;;;;;;;5058366;28;20213;-89
2023/04/28 11:00:22;;;;;;;13.30;11.80;;;;;;;;;;5059457;28;20241;-89
2023/04/28 11:02:49;;;;;;;12.40;10.73;;;;;;;;;;5059450;28;20213;-89
2023/04/28 11:05:17;;;;;;;12.53;10.87;;;;;;;;;;5059452;28;20238;-88
2023/04/28 11:08:03;;;;;;;14.73;11.50;;;;;;;;;;5058754;28;20313;-89
2023/04/28 11:10:45;;;;;;;13.30;10.40;;;;;;;;;;5057905;28;20237;-89
2023/04/28 11:13:32;;;;;;;11.90;10.67;;;;;;;;;;5058073;28;20234;-88
2023/04/28 11:16:03;;;;;;;13.43;11.30;;;;;;;;;;5058560;28;20234;-89
2023/04/28 11:18:30;;;;;;;11.27;10.00;;;;;;;;;;5059341;28;20248;-88
2023/04/28 11:20:58;;;;;;;12.30;10.67;;;;;;;;;;5059164;28;20237;-88
2023/04/28 11:23:29;;;;;;;11.73;9.77;;;;;;;;;;5058838;28;20222;-89
2023/04/28 11:25:56;;;;;;;12.93;10.00;;;;;;;;;;5058252;28;20638;-89
2023/04/28 11:28:23;;;;;;;11.30;10.20;;;;;;;;;;5059283;28;20213;-89
2023/04/28 11:30:52;;;;;;;11.73;10.50;;;;;;;;;;5057845;28;20241;-89
2023/04/28 11:33:19;;;;;;;10.10;9.10;;;;;;;;;;5055088;28;20245;-89
2023/04/28 11:35:46;;;;;;;10.93;9.77;;;;;;;;;;5053594;28;20240;-89
2023/04/28 11:38:13;;;;;;;14.10;9.50;;;;;;;;;;5054326;28;20209;-89
2023/04/28 11:40:40;;;;;;;10.93;9.83;;;;;;;;;;5053470;28;20307;-89
2023/04/28 11:43:07;;;;;;;10.50;9.53;;;;;;;;;;5053765;28;20237;-89
2023/04/28 11:45:34;;;;;;;11.10;9.90;;;;;;;;;;5053308;28;20238;-89
2023/04/28 11:48:04;;;;;;;12.80;9.87;;;;;;;;;;5054154;28;20684;-88
2023/04/28 11:50:38;;;;;;;11.53;10.43;;;;;;;;;;5053378;28;20261;-88
2023/04/28 11:53:06;;;;;;;10.40;9.40;;;;;;;;;;5053423;28;20222;-88
2023/04/28 11:55:33;;;;;;;12.07;10.70;;;;;;;;;;5052909;28;20316;-87
2023/04/28 11:58:15;;;;;;;11.60;10.40;;;;;;;;;;5053285;28;20202;-87
2023/04/28 12:00:42;;;;;;;11.77;9.60;;;;;;;;;;5052152;28;20238;-87
2023/04/28 12:03:10;;;;;;;11.13;9.93;;;;;;;;;;5053011;28;20233;-87
2023/04/28 12:05:44;;;;;;;11.50;10.40;;;;;;;;;;5052658;28;20327;-87
2023/04/28 12:08:12;;;;;;;12.47;10.30;;;;;;;;;;5052908;28;20233;-87
2023/04/28 12:10:39;;;;;;;11.67;10.03;;;;;;;;;;5052783;28;20233;-87
2023/04/28 12:13:15;;;;;;;11.57;10.37;;;;;;;;;;5052508;28;20264;-85
2023/04/28 12:15:43;;;;;;;12.03;10.27;;;;;;;;;;5052926;28;20260;-86
2023/04/28 12:18:12;;;;;;;11.67;10.50;;;;;;;;;;5054880;28;20860;-87
2023/04/28 12:20:39;;;;;;;11.23;10.23;;;;;;;;;;5054469;28;20714;-87
2023/04/28 12:23:07;;;;;;;11.37;9.47;;;;;;;;;;5054971;28;20244;-87
2023/04/28 12:25:34;;;;;;;11.47;10.33;;;;;;;;;;5052391;28;20233;-87
2023/04/28 12:28:02;;;;;;;10.97;9.87;;;;;;;;;;5053193;28;20206;-86
2023/04/28 12:30:30;;;;;;;10.87;9.87;;;;;;;;;;5052769;28;20305;-87
2023/04/28 12:32:57;;;;;;;10.90;9.80;;;;;;;;;;5051247;28;20857;-86
2023/04/28 12:35:27;;;;;;;10.37;9.37;;;;;;;;;;5052208;28;20757;-88
2023/04/28 12:37:55;;;;;;;10.00;9.07;;;;;;;;;;5050584;28;20198;-88
2023/04/28 12:40:23;;;;;;;9.73;8.40;;;;;;;;;;5052266;28;20238;-88
2023/04/28 12:42:50;;;;;;;9.00;7.93;;;;;;;;;;5052210;28;20727;-86
2023/04/28 12:45:17;;;;;;;9.50;8.60;;;;;;;;;;5052161;28;20257;-88
2023/04/28 12:47:46;;;;;;;9.70;8.70;;;;;;;;;;5053004;28;20290;-88
2023/04/28 12:50:13;;;;;;;8.90;8.00;;;;;;;;;;5052752;28;20229;-92
2023/04/28 12:52:42;;;;;;;8.53;7.77;;;;;;;;;;5052379;28;20238;-90
2023/04/28 12:55:09;;;;;;;8.73;7.93;;;;;;;;;;5052567;28;20240;-91
2023/04/28 12:57:37;;;;;;;8.30;7.57;;;;;;;;;;5053304;28;20213;-90
2023/04/28 13:00:06;;;;;;;7.00;6.40;;;;;;;;;;5052842;28;20598;-89
2023/04/28 13:02:33;;;;;;;6.77;6.23;;;;;;;;;;5052581;28;20309;-91
2023/04/28 13:05:00;;;;;;;5.60;5.10;;;;;;;;;;5052309;28;20237;-90
2023/04/28 13:07:29;;;;;;;6.13;5.63;;;;;;;;;;5053119;28;20206;-89
2023/04/28 13:09:57;;;;;;;6.13;5.53;;;;;;;;;;5044860;28;20667;-90
2023/04/28 13:12:24;;;;;;;5.30;4.80;;;;;;;;;;5053263;28;20237;-88
2023/04/28 13:14:52;;;;;;;5.50;5.00;;;;;;;;;;5056350;28;20204;-88
2023/04/28 13:17:21;;;;;;;4.97;4.57;;;;;;;;;;5059392;28;20244;-88
2023/04/28 13:19:50;;;;;;;4.73;4.37;;;;;;;;;;5058955;28;20202;-88
2023/04/28 13:22:17;;;;;;;4.60;4.10;;;;;;;;;;5056992;28;20222;-88
2023/04/28 13:24:44;;;;;;;4.80;4.40;;;;;;;;;;5059029;28;20270;-87
2023/04/28 13:27:12;;;;;;;5.50;5.10;;;;;;;;;;5059796;28;20198;-88
2023/04/28 13:29:40;;;;;;;4.45;4.13;;;;;;;;;;5056858;28;20663;-88
2023/04/28 13:32:07;;;;;;;5.07;3.70;;;;;;;;;;5057676;28;20236;-88
2023/04/28 13:34:37;;;;;;;3.00;2.80;;;;;;;;;;5057484;28;20238;-86
2023/04/28 13:37:06;;;;;;;2.65;2.47;;;;;;;;;;5056021;28;20214;-85
2023/04/28 13:39:33;;;;;;;2.80;2.60;;;;;;;;;;5057219;28;20202;-87
2023/04/28 13:42:00;;;;;;;2.55;2.38;;;;;;;;;;5057938;28;20246;-87
2023/04/28 13:44:29;;;;;;;2.45;2.25;;;;;;;;;;5058371;28;20210;-86
2023/04/28 13:46:56;;;;;;;2.60;2.40;;;;;;;;;;5056402;28;20237;-86
2023/04/28 13:49:23;;;;;;;2.40;2.20;;;;;;;;;;5060275;28;20208;-86
2023/04/28 13:51:50;;;;;;;1.92;1.83;;;;;;;;;;5056695;28;20241;-87
2023/04/28 13:54:17;;;;;;;1.80;1.70;;;;;;;;;;5055424;28;20218;-86
2023/04/28 13:56:45;;;;;;;1.88;1.70;;;;;;;;;;5055638;28;20236;-87
2023/04/28 13:59:13;;;;;;;1.58;1.48;;;;;;;;;;5058110;28;20237;-86
2023/04/28 14:01:42;;;;;;;1.52;1.42;;;;;;;;;;5056567;28;20226;-87
2023/04/28 14:04:09;;;;;;;1.60;1.50;;;;;;;;;;5058415;28;20194;-88
2023/04/28 14:06:37;;;;;;;1.73;1.63;;;;;;;;;;5057603;28;20607;-86
2023/04/28 14:09:05;;;;;;;1.50;1.40;;;;;;;;;;5057778;28;20206;-86
2023/04/28 14:11:32;;;;;;;1.60;1.50;;;;;;;;;;5054969;28;20240;-86
2023/04/28 14:13:59;;;;;;;1.95;1.85;;;;;;;;;;5048535;28;20237;-86
2023/04/28 14:16:26;;;;;;;1.83;1.73;;;;;;;;;;5057432;28;20225;-87
2023/04/28 14:18:54;;;;;;;1.85;1.75;;;;;;;;;;5056860;28;20217;-87
2023/04/28 14:21:33;;;;;;;2.55;1.80;;;;;;;;;;5058266;28;20236;-89
2023/04/28 14:24:00;;;;;;;1.98;1.88;;;;;;;;;;5048157;28;20287;-88
2023/04/28 14:26:27;;;;;;;1.83;1.73;;;;;;;;;;5056375;28;20230;-87
2023/04/28 14:28:54;;;;;;;1.70;1.60;;;;;;;;;;5060196;28;20587;-88
2023/04/28 14:31:21;;;;;;;5.22;1.48;;;;;;;;;;5054607;28;20230;-87
2023/04/28 14:33:48;;;;;;;1.92;1.83;;;;;;;;;;5058530;28;20225;-88
2023/04/28 14:36:17;;;;;;;2.03;1.92;;;;;;;;;;5057376;28;20232;-88
2023/04/28 14:38:44;;;;;;;2.42;1.50;;;;;;;;;;5059216;28;20221;-88
2023/04/28 14:41:11;;;;;;;1.60;1.50;;;;;;;;;;5057419;28;20241;-88